createdAt,value
2024-02-28T00:00:59.042Z,36.80
2024-02-28T00:03:25.818Z,34.23
2024-02-28T00:05:52.394Z,34.40
2024-02-28T00:08:21.273Z,34.57
2024-02-28T00:10:48.003Z,34.80
2024-02-28T00:13:16.611Z,34.97
2024-02-28T00:15:43.316Z,35.93
2024-02-28T00:18:10.017Z,38.57
2024-02-28T00:20:36.637Z,37.23
2024-02-28T00:23:03.239Z,37.17
2024-02-28T00:25:29.876Z,34.80
2024-02-28T00:27:56.694Z,36.00
2024-02-28T00:30:23.339Z,36.27
2024-02-28T00:32:49.902Z,36.17
2024-02-28T00:35:16.517Z,36.00
2024-02-28T00:37:43.096Z,36.00
2024-02-28T00:40:10.296Z,37.90
2024-02-28T00:42:36.915Z,39.27
2024-02-28T00:45:04.097Z,38.73
2024-02-28T00:47:31.061Z,40.03
2024-02-28T00:49:57.631Z,39.03
2024-02-28T00:52:26.217Z,39.83
2024-02-28T00:54:52.882Z,36.30
2024-02-28T00:57:19.553Z,38.60
2024-02-28T00:59:46.309Z,39.17
2024-02-28T01:02:12.902Z,38.50
2024-02-28T01:04:41.015Z,44.13
2024-02-28T01:07:07.694Z,42.17
2024-02-28T01:09:34.381Z,39.33
2024-02-28T01:12:02.450Z,37.60
2024-02-28T01:14:28.981Z,37.03
2024-02-28T01:16:55.712Z,36.07
2024-02-28T01:19:22.351Z,35.73
2024-02-28T01:21:49.055Z,38.17
2024-02-28T01:24:15.903Z,37.30
2024-02-28T01:26:42.673Z,36.40
2024-02-28T01:29:09.267Z,35.90
2024-02-28T01:31:35.920Z,34.57
2024-02-28T01:34:02.511Z,33.70
2024-02-28T01:36:29.105Z,32.67
2024-02-28T01:38:55.658Z,34.57
2024-02-28T01:41:22.254Z,34.00
2024-02-28T01:43:49.110Z,33.10
2024-02-28T01:46:26.739Z,35.00
2024-02-28T01:48:55.241Z,38.20
2024-02-28T01:51:28.160Z,34.50
2024-02-28T01:53:55.731Z,35.40
2024-02-28T01:56:24.335Z,36.23
2024-02-28T01:58:51.178Z,33.70
2024-02-28T02:01:18.510Z,34.37
2024-02-28T02:03:51.100Z,34.33
2024-02-28T02:06:19.242Z,35.83
2024-02-28T02:08:46.917Z,35.10
2024-02-28T02:11:16.055Z,34.13
2024-02-28T02:13:52.646Z,34.70
2024-02-28T02:16:20.550Z,33.97
2024-02-28T02:18:48.555Z,35.33
2024-02-28T02:21:19.039Z,33.43
2024-02-28T02:23:45.589Z,34.07
2024-02-28T02:26:12.145Z,38.33
2024-02-28T02:28:38.644Z,40.17
2024-02-28T02:31:05.350Z,39.30
2024-02-28T02:33:31.964Z,45.63
2024-02-28T02:35:59.075Z,62.20
2024-02-28T02:38:25.695Z,40.13
2024-02-28T02:40:52.626Z,42.57
2024-02-28T02:43:19.381Z,53.57
2024-02-28T02:45:46.086Z,39.50
2024-02-28T02:48:12.678Z,40.47
2024-02-28T02:50:39.206Z,39.87
2024-02-28T02:53:11.582Z,37.17
2024-02-28T02:55:38.239Z,37.83
2024-02-28T02:58:04.907Z,37.60
2024-02-28T03:00:31.500Z,37.73
2024-02-28T03:02:58.097Z,36.20
2024-02-28T03:05:24.605Z,34.97
2024-02-28T03:07:51.193Z,35.83
2024-02-28T03:10:17.734Z,39.63
2024-02-28T03:12:44.305Z,38.13
2024-02-28T03:15:10.869Z,47.77
2024-02-28T03:17:37.473Z,39.93
2024-02-28T03:20:04.408Z,37.80
2024-02-28T03:22:30.943Z,36.23
2024-02-28T03:24:57.532Z,40.13
2024-02-28T03:27:24.168Z,39.97
2024-02-28T03:29:50.743Z,50.00
2024-02-28T03:32:17.376Z,42.27
2024-02-28T03:34:43.930Z,43.33
2024-02-28T03:37:10.446Z,42.57
2024-02-28T03:39:37.038Z,47.57
2024-02-28T03:42:03.880Z,43.83
2024-02-28T03:44:30.457Z,50.73
2024-02-28T03:46:57.100Z,40.80
2024-02-28T03:49:23.636Z,41.13
2024-02-28T03:51:50.285Z,48.20
2024-02-28T03:54:17.223Z,39.97
2024-02-28T03:56:43.812Z,41.40
2024-02-28T03:59:10.402Z,46.53
2024-02-28T04:01:37.018Z,46.37
2024-02-28T04:04:03.808Z,67.07
2024-02-28T04:06:31.351Z,51.27
2024-02-28T04:08:57.908Z,51.83
2024-02-28T04:11:25.162Z,45.83
2024-02-28T04:13:51.766Z,45.40
2024-02-28T04:16:18.325Z,33.40
2024-02-28T04:18:44.953Z,37.70
2024-02-28T04:21:11.646Z,33.80
2024-02-28T04:23:39.274Z,35.67
2024-02-28T04:26:05.835Z,33.03
2024-02-28T04:28:32.391Z,31.53
2024-02-28T04:30:59.019Z,31.43
2024-02-28T04:33:25.685Z,33.13
2024-02-28T04:35:52.201Z,32.63
2024-02-28T04:38:18.793Z,34.47
2024-02-28T04:40:45.695Z,32.40
2024-02-28T04:43:12.274Z,32.23
2024-02-28T04:45:38.862Z,33.87
2024-02-28T04:48:06.146Z,35.63
2024-02-28T04:50:32.867Z,33.57
2024-02-28T04:52:59.451Z,39.20
2024-02-28T04:55:26.038Z,37.67
2024-02-28T04:57:52.716Z,34.40
2024-02-28T05:00:19.453Z,33.67
2024-02-28T05:02:46.023Z,35.13
2024-02-28T05:05:12.596Z,35.53
2024-02-28T05:07:39.290Z,35.23
2024-02-28T05:10:06.583Z,32.33
2024-02-28T05:12:33.330Z,34.47
2024-02-28T05:14:59.949Z,33.60
2024-02-28T05:17:26.548Z,32.80
2024-02-28T05:19:53.109Z,31.70
2024-02-28T05:22:19.684Z,34.00
2024-02-28T05:24:49.428Z,38.73
2024-02-28T05:27:16.197Z,77.23
2024-02-28T05:29:43.914Z,63.47
2024-02-28T05:32:10.691Z,45.57
2024-02-28T05:34:37.263Z,45.93
2024-02-28T05:37:03.894Z,40.13
2024-02-28T05:39:31.955Z,43.90
2024-02-28T05:41:58.674Z,47.87
2024-02-28T05:44:25.723Z,54.57
2024-02-28T05:46:52.310Z,53.70
2024-02-28T05:49:18.828Z,44.63
2024-02-28T05:51:45.496Z,41.27
2024-02-28T05:54:12.074Z,42.00
2024-02-28T05:56:38.551Z,50.63
2024-02-28T05:59:05.104Z,71.23
2024-02-28T06:01:31.707Z,60.30
2024-02-28T06:03:58.259Z,57.93
2024-02-28T06:06:24.874Z,63.30
2024-02-28T06:08:51.414Z,50.27
2024-02-28T06:11:17.988Z,45.43
2024-02-28T06:13:44.624Z,75.63
2024-02-28T06:16:18.736Z,63.40
2024-02-28T06:18:45.933Z,62.53
2024-02-28T06:21:14.235Z,72.40
2024-02-28T06:23:40.848Z,48.37
2024-02-28T06:26:07.466Z,58.27
2024-02-28T06:28:33.967Z,80.93
2024-02-28T06:31:00.671Z,63.37
2024-02-28T06:33:27.404Z,46.63
2024-02-28T06:35:53.971Z,41.53
2024-02-28T06:38:20.477Z,43.03
2024-02-28T06:40:46.947Z,48.77
2024-02-28T06:43:13.546Z,50.13
2024-02-28T06:45:40.110Z,63.33
2024-02-28T06:48:08.228Z,64.97
2024-02-28T06:50:34.800Z,45.17
2024-02-28T06:53:01.332Z,45.53
2024-02-28T06:55:27.875Z,49.17
2024-02-28T06:57:54.557Z,54.23
2024-02-28T07:00:22.247Z,45.90
2024-02-28T07:02:48.796Z,53.37
2024-02-28T07:05:15.467Z,44.20
2024-02-28T07:07:42.097Z,42.57
2024-02-28T07:10:08.806Z,41.10
2024-02-28T07:12:35.426Z,38.60
2024-02-28T07:15:02.030Z,39.10
2024-02-28T07:17:28.598Z,38.70
2024-02-28T07:19:55.114Z,35.73
2024-02-28T07:22:22.355Z,53.37
2024-02-28T07:24:49.376Z,34.13
2024-02-28T07:27:17.028Z,48.63
2024-02-28T07:29:43.630Z,64.30
2024-02-28T07:32:10.153Z,36.43
2024-02-28T07:34:36.655Z,63.43
2024-02-28T07:37:03.619Z,50.93
2024-02-28T07:39:30.277Z,45.67
2024-02-28T07:41:57.120Z,45.53
2024-02-28T07:44:24.084Z,55.53
2024-02-28T07:46:52.210Z,43.57
2024-02-28T07:49:19.695Z,40.60
2024-02-28T07:51:46.795Z,51.03
2024-02-28T07:54:13.578Z,37.60
2024-02-28T07:56:40.192Z,34.83
2024-02-28T07:59:06.750Z,42.57
2024-02-28T08:01:33.774Z,42.10
2024-02-28T08:04:01.064Z,52.33
2024-02-28T08:06:27.866Z,37.53
2024-02-28T08:08:54.637Z,45.30
2024-02-28T08:11:21.344Z,34.30
2024-02-28T08:13:48.086Z,47.03
2024-02-28T08:16:14.776Z,35.67
2024-02-28T08:18:41.670Z,38.50
2024-02-28T08:21:08.311Z,42.27
2024-02-28T08:23:34.828Z,36.77
2024-02-28T08:26:01.351Z,54.80
2024-02-28T08:28:27.877Z,40.00
2024-02-28T08:30:54.482Z,40.93
2024-02-28T08:33:24.614Z,33.80
2024-02-28T08:35:52.736Z,29.80
2024-02-28T08:38:19.422Z,28.30
2024-02-28T08:40:46.880Z,28.80
2024-02-28T08:43:13.737Z,27.80
2024-02-28T08:45:40.591Z,28.57
2024-02-28T08:48:08.580Z,27.27
2024-02-28T08:50:35.345Z,30.53
2024-02-28T08:53:03.002Z,33.80
2024-02-28T08:55:30.318Z,30.33
2024-02-28T08:57:57.009Z,28.63
2024-02-28T09:00:23.785Z,28.33
2024-02-28T09:02:50.575Z,30.10
2024-02-28T09:05:17.218Z,29.03
2024-02-28T09:07:44.192Z,27.10
2024-02-28T09:10:12.175Z,27.80
2024-02-28T09:12:39.233Z,26.90
2024-02-28T09:15:06.316Z,28.97
2024-02-28T09:17:32.977Z,26.47
2024-02-28T09:20:02.122Z,27.23
2024-02-28T09:22:28.918Z,24.23
2024-02-28T09:24:55.550Z,25.27
2024-02-28T09:27:22.269Z,26.23
2024-02-28T09:29:48.848Z,25.33
2024-02-28T09:32:15.909Z,26.17
2024-02-28T09:34:42.975Z,26.07
2024-02-28T09:37:09.846Z,26.47
2024-02-28T09:39:39.891Z,27.23
2024-02-28T09:42:08.020Z,26.70
2024-02-28T09:44:35.726Z,26.07
2024-02-28T09:47:02.457Z,27.00
2024-02-28T09:49:32.053Z,29.07
2024-02-28T09:51:59.764Z,26.67
2024-02-28T09:54:26.834Z,28.57
2024-02-28T09:56:53.386Z,27.50
2024-02-28T09:59:21.910Z,26.70
2024-02-28T10:01:59.037Z,27.00
2024-02-28T10:04:27.181Z,27.13
2024-02-28T10:06:53.710Z,27.70
2024-02-28T10:09:20.283Z,26.33
2024-02-28T10:11:49.820Z,25.47
2024-02-28T10:14:20.312Z,26.33
2024-02-28T10:16:47.012Z,25.47
2024-02-28T10:19:14.058Z,26.67
2024-02-28T10:21:40.901Z,25.80
2024-02-28T10:24:07.718Z,26.50
2024-02-28T10:26:43.009Z,28.20
2024-02-28T10:29:12.079Z,26.43
2024-02-28T10:31:38.834Z,26.30
2024-02-28T10:34:06.662Z,26.10
2024-02-28T10:36:33.925Z,25.70
2024-02-28T10:39:01.487Z,26.07
2024-02-28T10:41:29.379Z,24.77
2024-02-28T10:43:55.950Z,24.50
2024-02-28T10:46:35.185Z,24.77
2024-02-28T10:49:03.961Z,25.53
2024-02-28T10:51:35.165Z,25.70
2024-02-28T10:54:13.656Z,24.27
2024-02-28T10:56:42.687Z,23.37
2024-02-28T10:59:12.391Z,22.83
2024-02-28T11:01:45.455Z,23.37
2024-02-28T11:04:16.250Z,22.33
2024-02-28T11:06:54.933Z,22.63
2024-02-28T11:09:28.669Z,21.67
2024-02-28T11:11:56.905Z,20.93
2024-02-28T11:14:26.547Z,20.37
2024-02-28T11:17:04.132Z,22.60
2024-02-28T11:19:32.617Z,21.87
2024-02-28T11:22:04.829Z,21.30
2024-02-28T11:24:34.409Z,21.53
2024-02-28T11:27:03.366Z,21.10
2024-02-28T11:29:30.367Z,21.27
2024-02-28T11:31:57.060Z,20.67
2024-02-28T11:34:23.809Z,22.47
2024-02-28T11:36:51.652Z,21.13
2024-02-28T11:39:19.110Z,21.07
2024-02-28T11:41:49.782Z,21.77
2024-02-28T11:44:17.835Z,20.63
2024-02-28T11:46:45.956Z,20.27
2024-02-28T11:49:13.788Z,20.33
2024-02-28T11:51:44.579Z,21.17
2024-02-28T11:54:12.449Z,20.67
2024-02-28T11:56:42.883Z,21.70
2024-02-28T11:59:12.728Z,20.83
2024-02-28T12:01:41.662Z,19.57
2024-02-28T12:04:08.660Z,20.63
2024-02-28T12:06:35.851Z,20.33
2024-02-28T12:09:02.650Z,18.30
2024-02-28T12:11:31.254Z,19.00
2024-02-28T12:13:57.878Z,20.87
2024-02-28T12:16:26.603Z,20.60
2024-02-28T12:18:53.733Z,19.10
2024-02-28T12:21:21.615Z,17.73
2024-02-28T12:23:51.535Z,17.13
2024-02-28T12:26:19.966Z,16.27
2024-02-28T12:28:46.635Z,19.10
2024-02-28T12:31:14.344Z,16.67
2024-02-28T12:33:41.292Z,17.47
2024-02-28T12:36:08.194Z,16.97
2024-02-28T12:38:34.899Z,17.53
2024-02-28T12:41:01.611Z,16.97
2024-02-28T12:43:28.785Z,16.03
2024-02-28T12:45:55.405Z,17.47
2024-02-28T12:48:22.797Z,16.17
2024-02-28T12:50:49.648Z,16.57
2024-02-28T12:53:16.211Z,17.03
2024-02-28T12:55:43.097Z,16.50
2024-02-28T12:58:09.708Z,16.50
2024-02-28T13:00:36.550Z,15.07
2024-02-28T13:03:04.301Z,14.97
2024-02-28T13:05:32.217Z,14.57
2024-02-28T13:07:59.067Z,13.40
2024-02-28T13:10:26.994Z,13.23
2024-02-28T13:12:53.863Z,14.90
2024-02-28T13:15:20.564Z,14.07
2024-02-28T13:17:50.685Z,13.07
2024-02-28T13:20:17.679Z,13.40
2024-02-28T13:22:44.315Z,12.83
2024-02-28T13:25:12.558Z,14.40
2024-02-28T13:27:39.176Z,13.83
2024-02-28T13:30:06.462Z,14.00
2024-02-28T13:32:33.351Z,13.43
2024-02-28T13:35:00.938Z,14.00
2024-02-28T13:37:27.475Z,12.83
2024-02-28T13:39:54.144Z,11.63
2024-02-28T13:42:25.551Z,12.20
2024-02-28T13:44:52.661Z,10.33
2024-02-28T13:47:19.213Z,10.10
2024-02-28T13:49:46.045Z,10.50
2024-02-28T13:52:12.681Z,8.83
2024-02-28T13:54:39.285Z,7.80
2024-02-28T13:57:07.357Z,8.83
2024-02-28T13:59:35.303Z,9.90
2024-02-28T14:02:02.286Z,8.40
2024-02-28T14:04:28.957Z,8.77
2024-02-28T14:06:55.524Z,8.53
2024-02-28T14:09:22.037Z,10.07
2024-02-28T14:11:48.618Z,7.63
2024-02-28T14:14:15.277Z,7.13
2024-02-28T14:16:41.902Z,7.20
2024-02-28T14:19:08.568Z,6.20
2024-02-28T14:21:35.185Z,6.63
2024-02-28T14:24:01.763Z,6.67
2024-02-28T14:26:28.728Z,7.10
2024-02-28T14:28:56.689Z,6.87
2024-02-28T14:31:24.325Z,6.80
2024-02-28T14:33:51.298Z,6.67
2024-02-28T14:36:18.101Z,7.20
2024-02-28T14:38:45.507Z,7.20
2024-02-28T14:41:12.906Z,6.37
2024-02-28T14:43:40.112Z,6.17
2024-02-28T14:46:08.317Z,6.23
2024-02-28T14:48:34.946Z,6.77
2024-02-28T14:51:03.441Z,6.50
2024-02-28T14:53:30.097Z,6.83
2024-02-28T14:55:56.731Z,6.07
2024-02-28T14:58:23.267Z,6.50
2024-02-28T15:00:50.599Z,6.53
2024-02-28T15:03:17.635Z,5.97
2024-02-28T15:05:45.180Z,6.23
2024-02-28T15:08:11.878Z,6.17
2024-02-28T15:10:38.446Z,5.80
2024-02-28T15:13:05.215Z,5.90
2024-02-28T15:15:32.022Z,6.17
2024-02-28T15:17:59.649Z,5.80
2024-02-28T15:20:26.256Z,5.17
2024-02-28T15:22:52.824Z,5.37
2024-02-28T15:25:19.353Z,5.67
2024-02-28T15:27:45.920Z,5.63
2024-02-28T15:30:13.031Z,5.73
2024-02-28T15:32:40.771Z,5.77
2024-02-28T15:35:09.130Z,5.50
2024-02-28T15:37:36.461Z,5.47
2024-02-28T15:40:07.611Z,5.37
2024-02-28T15:42:34.876Z,4.87
2024-02-28T15:45:01.452Z,5.10
2024-02-28T15:47:29.511Z,4.70
2024-02-28T15:49:57.238Z,3.00
2024-02-28T15:52:23.931Z,3.20
2024-02-28T15:54:50.582Z,2.57
2024-02-28T15:57:17.151Z,2.57
2024-02-28T15:59:43.697Z,2.60
2024-02-28T16:02:11.068Z,2.30
2024-02-28T16:04:38.339Z,2.43
2024-02-28T16:07:04.966Z,2.40
2024-02-28T16:09:31.690Z,2.27
2024-02-28T16:11:58.255Z,1.80
2024-02-28T16:14:25.297Z,1.60
2024-02-28T16:16:51.843Z,1.77
2024-02-28T16:19:22.863Z,1.53
2024-02-28T16:21:54.097Z,1.40
2024-02-28T16:24:20.811Z,1.40
2024-02-28T16:26:47.349Z,1.30
2024-02-28T16:29:13.853Z,1.10
2024-02-28T16:31:40.362Z,1.40
2024-02-28T16:34:06.910Z,1.40
2024-02-28T16:36:33.532Z,1.50
2024-02-28T16:39:00.110Z,1.30
2024-02-28T16:41:26.606Z,1.20
2024-02-28T16:43:56.173Z,1.37
2024-02-28T16:46:22.853Z,1.20
2024-02-28T16:48:49.484Z,1.40
2024-02-28T16:51:16.139Z,1.40
2024-02-28T16:53:42.629Z,1.30
2024-02-28T16:56:09.127Z,1.87
2024-02-28T16:58:40.955Z,1.73
2024-02-28T17:01:08.598Z,2.00
2024-02-28T17:03:35.766Z,2.10
2024-02-28T17:06:02.765Z,3.43
2024-02-28T17:08:29.267Z,3.83
2024-02-28T17:10:56.192Z,6.37
2024-02-28T17:13:22.963Z,6.90
2024-02-28T17:15:54.931Z,7.07
2024-02-28T17:18:22.328Z,7.40
2024-02-28T17:20:49.050Z,10.43
2024-02-28T17:23:15.637Z,12.63
2024-02-28T17:25:42.242Z,10.37
2024-02-28T17:28:08.918Z,11.63
2024-02-28T17:30:35.515Z,13.20
2024-02-28T17:33:02.495Z,13.50
2024-02-28T17:35:29.662Z,14.10
2024-02-28T17:37:56.360Z,10.77
2024-02-28T17:40:22.857Z,14.10
2024-02-28T17:42:49.394Z,14.47
2024-02-28T17:45:16.000Z,15.17
2024-02-28T17:47:42.609Z,14.53
2024-02-28T17:50:11.640Z,12.10
2024-02-28T17:52:40.917Z,12.50
2024-02-28T17:55:09.880Z,12.00
2024-02-28T17:57:36.660Z,11.77
2024-02-28T18:00:07.695Z,10.50
2024-02-28T18:02:34.502Z,11.60
2024-02-28T18:05:01.035Z,13.30
2024-02-28T18:07:27.678Z,7.20
2024-02-28T18:09:54.225Z,5.33
2024-02-28T18:12:20.819Z,17.47
2024-02-28T18:14:47.333Z,7.50
2024-02-28T18:17:14.269Z,6.57
2024-02-28T18:19:40.797Z,10.67
2024-02-28T18:22:09.934Z,17.40
2024-02-28T18:24:37.972Z,7.97
2024-02-28T18:27:09.825Z,6.07
2024-02-28T18:29:37.013Z,4.90
2024-02-28T18:32:04.456Z,15.77
2024-02-28T18:34:30.978Z,10.57
2024-02-28T18:36:57.951Z,15.17
2024-02-28T18:39:25.964Z,14.17
2024-02-28T18:41:56.248Z,19.17
2024-02-28T18:44:22.735Z,6.80
2024-02-28T18:46:49.339Z,7.23
2024-02-28T18:49:16.051Z,14.50
2024-02-28T18:51:42.738Z,13.50
2024-02-28T18:54:09.412Z,9.37
2024-02-28T18:56:36.059Z,7.30
2024-02-28T18:59:02.830Z,7.77
2024-02-28T19:01:29.476Z,6.80
2024-02-28T19:03:56.797Z,5.80
2024-02-28T19:06:25.628Z,5.83
2024-02-28T19:08:56.679Z,5.40
2024-02-28T19:11:23.419Z,5.80
2024-02-28T19:13:51.134Z,6.20
2024-02-28T19:16:19.531Z,6.30
2024-02-28T19:18:46.215Z,6.23
2024-02-28T19:21:12.806Z,5.93
2024-02-28T19:23:41.603Z,8.60
2024-02-28T19:26:08.285Z,8.27
2024-02-28T19:28:34.935Z,7.97
2024-02-28T19:31:02.663Z,7.70
2024-02-28T19:33:29.423Z,8.00
2024-02-28T19:35:55.958Z,7.40
2024-02-28T19:38:22.824Z,7.50
2024-02-28T19:40:49.345Z,8.23
2024-02-28T19:43:15.975Z,7.37
2024-02-28T19:45:42.759Z,6.70
2024-02-28T19:48:09.508Z,6.73
2024-02-28T19:50:36.256Z,8.07
2024-02-28T19:53:04.092Z,7.57
2024-02-28T19:55:30.785Z,8.37
2024-02-28T19:57:57.380Z,8.13
2024-02-28T20:00:24.012Z,7.57
2024-02-28T20:02:50.574Z,7.67
2024-02-28T20:05:20.297Z,12.00
2024-02-28T20:07:48.767Z,10.77
2024-02-28T20:10:16.455Z,9.37
2024-02-28T20:12:43.179Z,7.60
2024-02-28T20:15:10.068Z,9.10
2024-02-28T20:17:36.724Z,8.90
2024-02-28T20:20:04.595Z,8.10
2024-02-28T20:22:31.117Z,8.63
2024-02-28T20:24:57.899Z,7.47
2024-02-28T20:27:24.832Z,7.67
2024-02-28T20:29:51.425Z,7.47
2024-02-28T20:32:18.289Z,9.80
2024-02-28T20:34:45.285Z,12.60
2024-02-28T20:37:12.026Z,13.03
2024-02-28T20:39:38.807Z,10.53
2024-02-28T20:42:05.933Z,9.43
2024-02-28T20:44:32.550Z,9.23
2024-02-28T20:46:59.667Z,8.30
2024-02-28T20:49:26.711Z,8.07
2024-02-28T20:51:53.421Z,8.37
2024-02-28T20:54:20.333Z,8.03
2024-02-28T20:56:46.918Z,9.13
2024-02-28T20:59:13.591Z,8.57
2024-02-28T21:01:40.565Z,8.53
2024-02-28T21:04:07.966Z,8.00
2024-02-28T21:06:34.667Z,7.47
2024-02-28T21:09:01.538Z,7.37
2024-02-28T21:11:28.649Z,7.70
2024-02-28T21:13:56.468Z,7.77
2024-02-28T21:16:23.739Z,8.40
2024-02-28T21:18:55.244Z,9.70
2024-02-28T21:21:28.189Z,11.13
2024-02-28T21:23:55.010Z,12.73
2024-02-28T21:26:21.685Z,13.20
2024-02-28T21:28:48.208Z,15.83
2024-02-28T21:31:14.916Z,18.43
2024-02-28T21:33:41.475Z,18.67
2024-02-28T21:36:08.727Z,14.47
2024-02-28T21:38:36.821Z,9.23
2024-02-28T21:41:03.456Z,8.47
2024-02-28T21:43:29.953Z,8.30
2024-02-28T21:45:56.646Z,7.33
2024-02-28T21:48:23.392Z,7.47
2024-02-28T21:50:49.928Z,6.77
2024-02-28T21:53:16.444Z,6.90
2024-02-28T21:55:44.078Z,7.17
2024-02-28T21:58:11.017Z,7.93
2024-02-28T22:00:37.882Z,8.53
2024-02-28T22:03:04.793Z,8.23
2024-02-28T22:05:31.588Z,8.27
2024-02-28T22:07:58.541Z,7.80
2024-02-28T22:10:25.239Z,8.13
2024-02-28T22:12:51.915Z,7.87
2024-02-28T22:15:18.862Z,7.20
2024-02-28T22:17:45.382Z,7.27
2024-02-28T22:20:12.165Z,7.70
2024-02-28T22:22:38.699Z,8.13
2024-02-28T22:25:06.035Z,7.40
2024-02-28T22:27:32.710Z,8.10
2024-02-28T22:30:00.315Z,8.50
2024-02-28T22:32:27.403Z,9.63
2024-02-28T22:34:54.044Z,9.97
2024-02-28T22:37:20.580Z,9.33
2024-02-28T22:39:47.733Z,8.57
2024-02-28T22:42:14.249Z,9.20
2024-02-28T22:44:41.170Z,8.63
2024-02-28T22:47:07.711Z,9.43
2024-02-28T22:49:34.636Z,9.50
2024-02-28T22:52:01.200Z,10.27
2024-02-28T22:54:27.845Z,9.60
2024-02-28T22:56:54.657Z,9.10
2024-02-28T22:59:21.727Z,9.67
2024-02-28T23:01:49.233Z,9.67
2024-02-28T23:04:17.364Z,8.63
2024-02-28T23:06:43.993Z,9.73
2024-02-28T23:09:11.376Z,9.67
2024-02-28T23:11:38.852Z,10.10
2024-02-28T23:14:08.450Z,10.67
2024-02-28T23:16:37.964Z,9.93
2024-02-28T23:19:04.634Z,10.87
2024-02-28T23:21:31.262Z,10.03
2024-02-28T23:23:58.724Z,9.90
2024-02-28T23:26:25.220Z,9.10
2024-02-28T23:28:51.718Z,8.90
2024-02-28T23:31:18.837Z,9.30
2024-02-28T23:33:45.423Z,9.47
2024-02-28T23:36:11.964Z,8.90
2024-02-28T23:38:38.461Z,9.03
2024-02-28T23:41:05.269Z,8.53
2024-02-28T23:43:31.757Z,9.20
2024-02-28T23:45:58.272Z,8.73
2024-02-28T23:48:24.826Z,9.80
2024-02-28T23:50:54.307Z,10.30
2024-02-28T23:53:20.920Z,9.53
2024-02-28T23:55:47.474Z,10.83
2024-02-28T23:58:14.445Z,10.33
